sensor_id;sensor_type;location;lat;lon;timestamp;pressure;altitude;pressure_sealevel;temperature;humidity
62779;BME280;48821;48.796;2.396;2023-02-28T00:00:16;102534.78;;;4.13;47.91
62779;BME280;48821;48.796;2.396;2023-02-28T00:01:27;102528.66;;;4.11;47.87
62779;BME280;48821;48.796;2.396;2023-02-28T00:02:41;102535.56;;;4.09;48.16
62779;BME280;48821;48.796;2.396;2023-02-28T00:03:52;102532.06;;;4.08;48.12
62779;BME280;48821;48.796;2.396;2023-02-28T00:05:05;102532.06;;;4.07;47.86
62779;BME280;48821;48.796;2.396;2023-02-28T00:06:17;102535.47;;;4.05;48.55
62779;BME280;48821;48.796;2.396;2023-02-28T00:07:29;102533.75;;;4.04;48.66
62779;BME280;48821;48.796;2.396;2023-02-28T00:08:41;102531.97;;;4.03;48.64
62779;BME280;48821;48.796;2.396;2023-02-28T00:09:53;102543.25;;;4.04;48.08
62779;BME280;48821;48.796;2.396;2023-02-28T00:11:10;102539.78;;;4.03;47.90
62779;BME280;48821;48.796;2.396;2023-02-28T00:12:22;102531.97;;;4.03;48.07
62779;BME280;48821;48.796;2.396;2023-02-28T00:13:35;102542.38;;;4.03;48.56
62779;BME280;48821;48.796;2.396;2023-02-28T00:14:49;102538.91;;;4.03;48.08
62779;BME280;48821;48.796;2.396;2023-02-28T00:16:09;102541.50;;;4.03;48.05
62779;BME280;48821;48.796;2.396;2023-02-28T00:17:22;102540.63;;;4.02;48.70
62779;BME280;48821;48.796;2.396;2023-02-28T00:18:34;102536.25;;;4.01;48.92
62779;BME280;48821;48.796;2.396;2023-02-28T00:19:49;102548.38;;;4.01;48.73
62779;BME280;48821;48.796;2.396;2023-02-28T00:21:01;102538.84;;;4.00;48.24
62779;BME280;48821;48.796;2.396;2023-02-28T00:22:14;102531.88;;;3.99;48.22
62779;BME280;48821;48.796;2.396;2023-02-28T00:23:26;102543.09;;;3.98;48.59
62779;BME280;48821;48.796;2.396;2023-02-28T00:24:37;102534.50;;;4.00;48.89
62779;BME280;48821;48.796;2.396;2023-02-28T00:25:50;102537.09;;;4.00;48.42
62779;BME280;48821;48.796;2.396;2023-02-28T00:27:00;102532.84;;;4.02;48.38
62779;BME280;48821;48.796;2.396;2023-02-28T00:28:12;102530.25;;;4.04;48.00
62779;BME280;48821;48.796;2.396;2023-02-28T00:29:24;102531.97;;;4.03;48.40
62779;BME280;48821;48.796;2.396;2023-02-28T00:30:36;102540.66;;;4.04;48.68
62779;BME280;48821;48.796;2.396;2023-02-28T00:31:48;102543.25;;;4.04;48.51
62779;BME280;48821;48.796;2.396;2023-02-28T00:33:00;102551.91;;;4.03;48.56
62779;BME280;48821;48.796;2.396;2023-02-28T00:34:12;102542.31;;;4.00;47.93
62779;BME280;48821;48.796;2.396;2023-02-28T00:35:24;102547.50;;;4.00;48.90
62779;BME280;48821;48.796;2.396;2023-02-28T00:36:36;102554.41;;;3.98;48.21
62779;BME280;48821;48.796;2.396;2023-02-28T00:37:47;102554.41;;;3.98;49.00
62779;BME280;48821;48.796;2.396;2023-02-28T00:38:59;102553.50;;;3.98;48.68
62779;BME280;48821;48.796;2.396;2023-02-28T00:40:11;102552.66;;;3.97;48.80
62779;BME280;48821;48.796;2.396;2023-02-28T00:41:23;102560.50;;;3.99;48.19
62779;BME280;48821;48.796;2.396;2023-02-28T00:42:35;102564.78;;;3.97;48.49
62779;BME280;48821;48.796;2.396;2023-02-28T00:43:47;102563.06;;;3.97;48.20
62779;BME280;48821;48.796;2.396;2023-02-28T00:44:59;102560.50;;;3.99;48.26
62779;BME280;48821;48.796;2.396;2023-02-28T00:46:11;102559.66;;;4.00;48.00
62779;BME280;48821;48.796;2.396;2023-02-28T00:47:23;102554.44;;;4.00;48.08
62779;BME280;48821;48.796;2.396;2023-02-28T00:48:35;102560.56;;;4.02;48.37
62779;BME280;48821;48.796;2.396;2023-02-28T00:49:46;102555.41;;;4.03;48.73
62779;BME280;48821;48.796;2.396;2023-02-28T00:50:58;102560.63;;;4.05;47.87
62779;BME280;48821;48.796;2.396;2023-02-28T00:52:10;102552.78;;;4.03;48.51
62779;BME280;48821;48.796;2.396;2023-02-28T00:53:22;102556.28;;;4.04;48.35
62779;BME280;48821;48.796;2.396;2023-02-28T00:54:32;102556.28;;;4.04;48.01
62779;BME280;48821;48.796;2.396;2023-02-28T00:55:45;102560.63;;;4.05;48.33
62779;BME280;48821;48.796;2.396;2023-02-28T00:56:57;102562.38;;;4.04;47.99
62779;BME280;48821;48.796;2.396;2023-02-28T00:58:09;102565.00;;;4.06;48.10
62779;BME280;48821;48.796;2.396;2023-02-28T00:59:21;102558.06;;;4.07;47.89
62779;BME280;48821;48.796;2.396;2023-02-28T01:00:33;102559.78;;;4.06;48.70
62779;BME280;48821;48.796;2.396;2023-02-28T01:01:45;102562.41;;;4.06;47.93
62779;BME280;48821;48.796;2.396;2023-02-28T01:02:57;102565.00;;;4.06;47.82
62779;BME280;48821;48.796;2.396;2023-02-28T01:04:08;102571.09;;;4.07;48.40
62779;BME280;48821;48.796;2.396;2023-02-28T01:05:20;102568.44;;;4.05;48.23
62779;BME280;48821;48.796;2.396;2023-02-28T01:06:32;102560.63;;;4.05;48.12
62779;BME280;48821;48.796;2.396;2023-02-28T01:07:43;102565.81;;;4.03;48.20
62779;BME280;48821;48.796;2.396;2023-02-28T01:08:54;102567.50;;;4.01;47.74
62779;BME280;48821;48.796;2.396;2023-02-28T01:10:06;102563.09;;;3.99;47.77
62779;BME280;48821;48.796;2.396;2023-02-28T01:11:18;102565.69;;;3.99;48.05
62779;BME280;48821;48.796;2.396;2023-02-28T01:12:29;102572.63;;;3.98;48.51
62779;BME280;48821;48.796;2.396;2023-02-28T01:13:42;102565.66;;;3.97;47.90
62779;BME280;48821;48.796;2.396;2023-02-28T01:14:54;102571.69;;;3.96;48.64
62779;BME280;48821;48.796;2.396;2023-02-28T01:16:06;102566.50;;;3.96;48.04
62779;BME280;48821;48.796;2.396;2023-02-28T01:17:18;102571.69;;;3.96;47.59
62779;BME280;48821;48.796;2.396;2023-02-28T01:18:29;102573.47;;;3.97;48.11
62779;BME280;48821;48.796;2.396;2023-02-28T01:19:42;102573.47;;;3.97;47.67
62779;BME280;48821;48.796;2.396;2023-02-28T01:20:54;102573.41;;;3.96;47.98
62779;BME280;48821;48.796;2.396;2023-02-28T01:22:06;102570.81;;;3.96;47.72
62779;BME280;48821;48.796;2.396;2023-02-28T01:23:17;102576.81;;;3.93;48.16
62779;BME280;48821;48.796;2.396;2023-02-28T01:24:30;102569.91;;;3.93;48.29
62779;BME280;48821;48.796;2.396;2023-02-28T01:25:42;102575.09;;;3.93;47.96
62779;BME280;48821;48.796;2.396;2023-02-28T01:26:54;102568.09;;;3.91;47.79
62779;BME280;48821;48.796;2.396;2023-02-28T01:28:06;102571.59;;;3.91;48.41
62779;BME280;48821;48.796;2.396;2023-02-28T01:29:17;102569.00;;;3.91;47.78
62779;BME280;48821;48.796;2.396;2023-02-28T01:30:29;102571.56;;;3.90;47.56
62779;BME280;48821;48.796;2.396;2023-02-28T01:31:41;102569.78;;;3.89;47.60
62779;BME280;48821;48.796;2.396;2023-02-28T01:32:52;102578.41;;;3.86;48.07
62779;BME280;48821;48.796;2.396;2023-02-28T01:34:04;102574.06;;;3.85;47.74
62779;BME280;48821;48.796;2.396;2023-02-28T01:35:15;102579.25;;;3.85;47.90
62779;BME280;48821;48.796;2.396;2023-02-28T01:36:29;102573.97;;;3.82;48.05
62779;BME280;48821;48.796;2.396;2023-02-28T01:37:41;102573.91;;;3.80;47.65
62779;BME280;48821;48.796;2.396;2023-02-28T01:38:53;102567.00;;;3.81;48.15
62779;BME280;48821;48.796;2.396;2023-02-28T01:40:06;102573.09;;;3.81;47.67
62779;BME280;48821;48.796;2.396;2023-02-28T01:41:18;102562.66;;;3.80;47.58
62779;BME280;48821;48.796;2.396;2023-02-28T01:42:29;102567.00;;;3.81;47.51
62779;BME280;48821;48.796;2.396;2023-02-28T01:46:25;102560.91;;;3.80;47.50
62779;BME280;48821;48.796;2.396;2023-02-28T01:47:40;102559.16;;;3.79;47.86
62779;BME280;48821;48.796;2.396;2023-02-28T01:49:00;102564.38;;;3.79;47.83
62779;BME280;48821;48.796;2.396;2023-02-28T01:50:19;102561.75;;;3.79;48.19
62779;BME280;48821;48.796;2.396;2023-02-28T01:51:59;102562.59;;;3.78;47.63
62779;BME280;48821;48.796;2.396;2023-02-28T01:53:15;102563.38;;;3.74;47.47
62779;BME280;48821;48.796;2.396;2023-02-28T01:54:31;102569.47;;;3.75;47.39
62779;BME280;48821;48.796;2.396;2023-02-28T01:55:47;102568.56;;;3.74;48.00
62779;BME280;48821;48.796;2.396;2023-02-28T01:57:15;102566.84;;;3.75;47.75
62779;BME280;48821;48.796;2.396;2023-02-28T01:58:28;102569.47;;;3.76;47.69
62779;BME280;48821;48.796;2.396;2023-02-28T01:59:50;102569.47;;;3.76;48.00
62779;BME280;48821;48.796;2.396;2023-02-28T02:01:03;102569.47;;;3.76;48.01
62779;BME280;48821;48.796;2.396;2023-02-28T02:02:17;102567.75;;;3.77;47.92
62779;BME280;48821;48.796;2.396;2023-02-28T02:03:29;102569.47;;;3.76;47.97
62779;BME280;48821;48.796;2.396;2023-02-28T02:04:54;102563.44;;;3.77;47.88
62779;BME280;48821;48.796;2.396;2023-02-28T02:06:08;102566.06;;;3.77;47.78
62779;BME280;48821;48.796;2.396;2023-02-28T02:07:20;102563.38;;;3.76;47.78
62779;BME280;48821;48.796;2.396;2023-02-28T02:08:32;102557.34;;;3.75;48.06
62779;BME280;48821;48.796;2.396;2023-02-28T02:09:44;102561.59;;;3.73;48.32
62779;BME280;48821;48.796;2.396;2023-02-28T02:10:57;102552.88;;;3.71;48.25
62779;BME280;48821;48.796;2.396;2023-02-28T02:17:36;102554.53;;;3.67;48.39
62779;BME280;48821;48.796;2.396;2023-02-28T02:18:59;102558.03;;;3.68;48.00
62779;BME280;48821;48.796;2.396;2023-02-28T02:21:47;102549.34;;;3.67;47.87
62779;BME280;48821;48.796;2.396;2023-02-28T02:35:17;102541.34;;;3.59;47.97
62779;BME280;48821;48.796;2.396;2023-02-28T02:38:46;102539.50;;;3.55;47.63
62779;BME280;48821;48.796;2.396;2023-02-28T02:40:18;102548.13;;;3.54;47.96
62779;BME280;48821;48.796;2.396;2023-02-28T02:41:51;102542.09;;;3.55;48.46
62779;BME280;48821;48.796;2.396;2023-02-28T02:43:13;102542.09;;;3.55;47.77
62779;BME280;48821;48.796;2.396;2023-02-28T02:44:48;102546.44;;;3.56;47.85
62779;BME280;48821;48.796;2.396;2023-02-28T02:46:05;102545.56;;;3.56;47.75
62779;BME280;48821;48.796;2.396;2023-02-28T02:47:20;102536.00;;;3.55;48.05
62779;BME280;48821;48.796;2.396;2023-02-28T02:48:36;102536.00;;;3.55;48.31
62779;BME280;48821;48.796;2.396;2023-02-28T02:49:52;102540.31;;;3.54;48.10
62779;BME280;48821;48.796;2.396;2023-02-28T02:51:09;102549.84;;;3.54;48.02
62779;BME280;48821;48.796;2.396;2023-02-28T02:52:27;102541.16;;;3.53;48.04
62779;BME280;48821;48.796;2.396;2023-02-28T02:53:47;102535.91;;;3.50;48.16
62779;BME280;48821;48.796;2.396;2023-02-28T02:55:02;102542.81;;;3.49;47.65
62779;BME280;48821;48.796;2.396;2023-02-28T02:56:18;102538.44;;;3.48;47.91
62779;BME280;48821;48.796;2.396;2023-02-28T02:57:38;102529.72;;;3.46;48.48
62779;BME280;48821;48.796;2.396;2023-02-28T02:58:57;102542.72;;;3.46;48.59
62779;BME280;48821;48.796;2.396;2023-02-28T03:00:16;102530.53;;;3.44;47.87
62779;BME280;48821;48.796;2.396;2023-02-28T03:01:28;102532.25;;;3.43;48.35
62779;BME280;48821;48.796;2.396;2023-02-28T03:02:40;102536.59;;;3.44;48.38
62779;BME280;48821;48.796;2.396;2023-02-28T03:03:58;102540.91;;;3.44;47.82
62779;BME280;48821;48.796;2.396;2023-02-28T03:05:20;102539.19;;;3.43;48.70
62779;BME280;48821;48.796;2.396;2023-02-28T03:06:34;102530.47;;;3.41;48.06
62779;BME280;48821;48.796;2.396;2023-02-28T03:07:45;102537.31;;;3.38;48.43
62779;BME280;48821;48.796;2.396;2023-02-28T03:08:56;102536.47;;;3.38;48.02
62779;BME280;48821;48.796;2.396;2023-02-28T03:10:50;102533.88;;;3.38;48.02
62779;BME280;48821;48.796;2.396;2023-02-28T03:12:07;102532.91;;;3.36;47.85
62779;BME280;48821;48.796;2.396;2023-02-28T03:15:17;102538.84;;;3.30;47.61
62779;BME280;48821;48.796;2.396;2023-02-28T03:16:41;102536.19;;;3.29;48.25
62779;BME280;48821;48.796;2.396;2023-02-28T03:18:08;102540.53;;;3.28;48.13
62779;BME280;48821;48.796;2.396;2023-02-28T03:26:07;102543.69;;;3.16;48.23
62779;BME280;48821;48.796;2.396;2023-02-28T03:27:05;102543.59;;;3.13;48.07
62779;BME280;48821;48.796;2.396;2023-02-28T03:30:38;102538.34;;;3.11;47.86
62779;BME280;48821;48.796;2.396;2023-02-28T03:31:39;102549.59;;;3.10;47.76
62779;BME280;48821;48.796;2.396;2023-02-28T03:32:59;102545.28;;;3.11;48.39
62779;BME280;48821;48.796;2.396;2023-02-28T03:34:38;102540.94;;;3.11;48.07
62779;BME280;48821;48.796;2.396;2023-02-28T03:36:02;102540.09;;;3.12;48.10
62779;BME280;48821;48.796;2.396;2023-02-28T03:37:21;102540.94;;;3.11;48.51
62779;BME280;48821;48.796;2.396;2023-02-28T03:38:40;102545.28;;;3.11;48.30
62779;BME280;48821;48.796;2.396;2023-02-28T03:40:00;102547.81;;;3.09;48.30
62779;BME280;48821;48.796;2.396;2023-02-28T03:41:22;102543.47;;;3.08;48.56
62779;BME280;48821;48.796;2.396;2023-02-28T03:42:36;102548.66;;;3.08;47.72
62779;BME280;48821;48.796;2.396;2023-02-28T03:43:58;102548.66;;;3.08;47.94
62779;BME280;48821;48.796;2.396;2023-02-28T03:45:16;102552.09;;;3.07;47.84
62779;BME280;48821;48.796;2.396;2023-02-28T03:46:32;102543.38;;;3.05;48.81
62779;BME280;48821;48.796;2.396;2023-02-28T03:48:01;102546.91;;;3.07;48.07
62779;BME280;48821;48.796;2.396;2023-02-28T03:49:20;102534.75;;;3.06;48.31
62779;BME280;48821;48.796;2.396;2023-02-28T03:50:40;102535.59;;;3.05;48.22
62779;BME280;48821;48.796;2.396;2023-02-28T03:51:52;102541.56;;;3.02;47.88
62779;BME280;48821;48.796;2.396;2023-02-28T03:53:10;102540.75;;;3.03;48.30
62779;BME280;48821;48.796;2.396;2023-02-28T03:54:32;102544.13;;;3.01;47.61
62779;BME280;48821;48.796;2.396;2023-02-28T03:55:48;102547.56;;;3.00;47.53
62779;BME280;48821;48.796;2.396;2023-02-28T03:58:33;102544.94;;;2.98;47.81
62779;BME280;48821;48.796;2.396;2023-02-28T03:59:55;102547.53;;;2.98;48.02
62779;BME280;48821;48.796;2.396;2023-02-28T04:02:36;102545.75;;;2.97;47.86
62779;BME280;48821;48.796;2.396;2023-02-28T04:03:47;102546.63;;;2.98;47.85
62779;BME280;48821;48.796;2.396;2023-02-28T04:04:59;102547.44;;;2.95;48.31
62779;BME280;48821;48.796;2.396;2023-02-28T04:06:18;102549.22;;;2.96;48.37
62779;BME280;48821;48.796;2.396;2023-02-28T04:07:29;102544.81;;;2.94;48.19
62779;BME280;48821;48.796;2.396;2023-02-28T04:08:43;102541.34;;;2.95;48.06
62779;BME280;48821;48.796;2.396;2023-02-28T04:09:57;102550.84;;;2.94;48.35
62779;BME280;48821;48.796;2.396;2023-02-28T04:12:27;102557.78;;;2.94;48.37
62779;BME280;48821;48.796;2.396;2023-02-28T04:13:38;102558.63;;;2.92;47.62
62779;BME280;48821;48.796;2.396;2023-02-28T04:14:51;102546.44;;;2.91;48.18
62779;BME280;48821;48.796;2.396;2023-02-28T04:16:06;102558.63;;;2.92;47.95
62779;BME280;48821;48.796;2.396;2023-02-28T04:17:23;102552.50;;;2.90;48.10
62779;BME280;48821;48.796;2.396;2023-02-28T04:18:36;102553.31;;;2.89;47.85
62779;BME280;48821;48.796;2.396;2023-02-28T04:19:49;102551.59;;;2.88;48.18
62779;BME280;48821;48.796;2.396;2023-02-28T04:21:03;102555.88;;;2.88;47.87
62779;BME280;48821;48.796;2.396;2023-02-28T04:22:13;102552.38;;;2.86;48.58
62779;BME280;48821;48.796;2.396;2023-02-28T04:23:24;102558.44;;;2.86;47.99
62779;BME280;48821;48.796;2.396;2023-02-28T04:24:36;102563.59;;;2.85;48.14
62779;BME280;48821;48.796;2.396;2023-02-28T04:25:47;102560.94;;;2.83;48.29
62779;BME280;48821;48.796;2.396;2023-02-28T04:26:58;102561.78;;;2.82;47.66
62779;BME280;48821;48.796;2.396;2023-02-28T04:28:09;102559.16;;;2.80;47.78
62779;BME280;48821;48.796;2.396;2023-02-28T04:30:33;102566.00;;;2.78;48.30
62779;BME280;48821;48.796;2.396;2023-02-28T04:31:44;102566.91;;;2.79;48.47
62779;BME280;48821;48.796;2.396;2023-02-28T04:32:55;102564.31;;;2.79;48.00
62779;BME280;48821;48.796;2.396;2023-02-28T04:34:07;102565.22;;;2.81;47.95
62779;BME280;48821;48.796;2.396;2023-02-28T04:35:20;102568.69;;;2.81;48.37
62779;BME280;48821;48.796;2.396;2023-02-28T04:36:31;102566.97;;;2.82;48.01
62779;BME280;48821;48.796;2.396;2023-02-28T04:37:43;102564.38;;;2.82;48.31
62779;BME280;48821;48.796;2.396;2023-02-28T04:38:54;102570.47;;;2.83;48.33
62779;BME280;48821;48.796;2.396;2023-02-28T04:40:05;102569.53;;;2.80;47.96
62779;BME280;48821;48.796;2.396;2023-02-28T04:41:16;102571.25;;;2.80;48.41
62779;BME280;48821;48.796;2.396;2023-02-28T04:42:27;102579.00;;;2.78;48.28
62779;BME280;48821;48.796;2.396;2023-02-28T04:43:38;102572.09;;;2.79;48.20
62779;BME280;48821;48.796;2.396;2023-02-28T04:44:49;102575.53;;;2.78;47.40
62779;BME280;48821;48.796;2.396;2023-02-28T04:46:02;102579.94;;;2.80;47.98
62779;BME280;48821;48.796;2.396;2023-02-28T04:47:16;102576.44;;;2.80;47.95
62779;BME280;48821;48.796;2.396;2023-02-28T04:48:29;102584.22;;;2.80;48.49
62779;BME280;48821;48.796;2.396;2023-02-28T04:49:39;102579.94;;;2.80;48.19
62779;BME280;48821;48.796;2.396;2023-02-28T04:50:51;102577.31;;;2.80;48.04
62779;BME280;48821;48.796;2.396;2023-02-28T04:52:02;102580.81;;;2.81;48.27
62779;BME280;48821;48.796;2.396;2023-02-28T04:53:13;102578.25;;;2.83;48.26
62779;BME280;48821;48.796;2.396;2023-02-28T04:54:25;102583.44;;;2.83;48.15
62779;BME280;48821;48.796;2.396;2023-02-28T04:55:36;102579.06;;;2.81;48.19
62779;BME280;48821;48.796;2.396;2023-02-28T04:56:50;102578.22;;;2.81;48.11
62779;BME280;48821;48.796;2.396;2023-02-28T04:58:01;102585.13;;;2.80;47.80
62779;BME280;48821;48.796;2.396;2023-02-28T04:59:13;102586.88;;;2.81;48.01
62779;BME280;48821;48.796;2.396;2023-02-28T05:00:24;102584.22;;;2.80;47.76
62779;BME280;48821;48.796;2.396;2023-02-28T05:01:35;102584.22;;;2.80;47.92
62779;BME280;48821;48.796;2.396;2023-02-28T05:02:46;102579.94;;;2.80;48.15
62779;BME280;48821;48.796;2.396;2023-02-28T05:03:59;102584.25;;;2.81;47.67
62779;BME280;48821;48.796;2.396;2023-02-28T05:05:10;102586.88;;;2.81;48.48
62779;BME280;48821;48.796;2.396;2023-02-28T05:06:22;102584.34;;;2.83;48.15
62779;BME280;48821;48.796;2.396;2023-02-28T05:07:34;102581.72;;;2.83;47.96
62779;BME280;48821;48.796;2.396;2023-02-28T05:08:45;102585.25;;;2.85;47.89
62779;BME280;48821;48.796;2.396;2023-02-28T05:09:56;102582.66;;;2.85;48.43
62779;BME280;48821;48.796;2.396;2023-02-28T05:11:17;102579.97;;;2.82;47.93
62779;BME280;48821;48.796;2.396;2023-02-28T05:12:29;102589.47;;;2.81;47.61
62779;BME280;48821;48.796;2.396;2023-02-28T05:13:39;102583.41;;;2.81;47.71
62779;BME280;48821;48.796;2.396;2023-02-28T05:14:51;102587.72;;;2.80;48.00
62779;BME280;48821;48.796;2.396;2023-02-28T05:16:02;102589.44;;;2.80;47.76
62779;BME280;48821;48.796;2.396;2023-02-28T05:17:13;102597.22;;;2.80;47.30
62779;BME280;48821;48.796;2.396;2023-02-28T05:18:23;102589.41;;;2.78;48.10
62779;BME280;48821;48.796;2.396;2023-02-28T05:19:34;102593.69;;;2.78;47.88
62779;BME280;48821;48.796;2.396;2023-02-28T05:20:45;102591.13;;;2.79;47.78
62779;BME280;48821;48.796;2.396;2023-02-28T05:21:56;102592.91;;;2.80;47.17
62779;BME280;48821;48.796;2.396;2023-02-28T05:23:11;102591.19;;;2.81;47.86
62779;BME280;48821;48.796;2.396;2023-02-28T05:24:23;102589.53;;;2.83;47.58
62779;BME280;48821;48.796;2.396;2023-02-28T05:25:34;102593.84;;;2.83;48.08
62779;BME280;48821;48.796;2.396;2023-02-28T05:26:45;102595.59;;;2.84;47.31
62779;BME280;48821;48.796;2.396;2023-02-28T05:27:56;102595.59;;;2.84;47.59
62779;BME280;48821;48.796;2.396;2023-02-28T05:29:06;102593.81;;;2.81;47.40
62779;BME280;48821;48.796;2.396;2023-02-28T05:30:18;102596.44;;;2.83;47.51
62779;BME280;48821;48.796;2.396;2023-02-28T05:31:29;102598.13;;;2.82;47.09
62779;BME280;48821;48.796;2.396;2023-02-28T05:32:40;102601.66;;;2.84;47.59
62779;BME280;48821;48.796;2.396;2023-02-28T05:33:55;102603.41;;;2.84;47.15
62779;BME280;48821;48.796;2.396;2023-02-28T05:35:06;102602.50;;;2.83;47.53
62779;BME280;48821;48.796;2.396;2023-02-28T05:36:17;102605.94;;;2.82;47.55
62779;BME280;48821;48.796;2.396;2023-02-28T05:37:28;102607.63;;;2.81;47.61
62779;BME280;48821;48.796;2.396;2023-02-28T05:38:39;102603.31;;;2.80;47.31
62779;BME280;48821;48.796;2.396;2023-02-28T05:39:50;102606.78;;;2.81;47.64
62779;BME280;48821;48.796;2.396;2023-02-28T05:41:05;102601.59;;;2.81;47.33
62779;BME280;48821;48.796;2.396;2023-02-28T05:42:16;102599.91;;;2.83;47.76
62779;BME280;48821;48.796;2.396;2023-02-28T05:43:27;102599.91;;;2.83;47.08
62779;BME280;48821;48.796;2.396;2023-02-28T05:44:38;102607.63;;;2.81;47.42
62779;BME280;48821;48.796;2.396;2023-02-28T05:45:49;102606.72;;;2.79;47.71
62779;BME280;48821;48.796;2.396;2023-02-28T05:47:00;102610.22;;;2.80;47.38
62779;BME280;48821;48.796;2.396;2023-02-28T05:48:11;102606.78;;;2.81;47.04
62779;BME280;48821;48.796;2.396;2023-02-28T05:49:24;102604.19;;;2.81;47.76
62779;BME280;48821;48.796;2.396;2023-02-28T05:50:36;102603.34;;;2.82;47.08
62779;BME280;48821;48.796;2.396;2023-02-28T05:51:46;102604.19;;;2.81;47.37
62779;BME280;48821;48.796;2.396;2023-02-28T05:52:57;102600.69;;;2.80;47.82
62779;BME280;48821;48.796;2.396;2023-02-28T05:54:09;102605.94;;;2.82;47.42
62779;BME280;48821;48.796;2.396;2023-02-28T05:55:19;102599.03;;;2.83;47.53
62779;BME280;48821;48.796;2.396;2023-02-28T05:56:31;102603.34;;;2.82;47.71
62779;BME280;48821;48.796;2.396;2023-02-28T05:57:42;102604.22;;;2.83;47.62
62779;BME280;48821;48.796;2.396;2023-02-28T05:58:53;102606.81;;;2.83;47.92
62779;BME280;48821;48.796;2.396;2023-02-28T06:00:05;102611.13;;;2.82;47.45
62779;BME280;48821;48.796;2.396;2023-02-28T06:01:31;102608.53;;;2.82;47.54
62779;BME280;48821;48.796;2.396;2023-02-28T06:02:45;102600.69;;;2.80;47.48
62779;BME280;48821;48.796;2.396;2023-02-28T06:03:59;102606.72;;;2.79;47.64
62779;BME280;48821;48.796;2.396;2023-02-28T06:05:14;102610.16;;;2.78;48.03
62779;BME280;48821;48.796;2.396;2023-02-28T06:06:27;102597.09;;;2.75;47.71
62779;BME280;48821;48.796;2.396;2023-02-28T06:07:40;102605.75;;;2.76;48.05
62779;BME280;48821;48.796;2.396;2023-02-28T06:08:50;102610.09;;;2.77;48.31
62779;BME280;48821;48.796;2.396;2023-02-28T06:10:02;102610.09;;;2.77;47.94
62779;BME280;48821;48.796;2.396;2023-02-28T06:11:13;102607.50;;;2.77;48.37
62779;BME280;48821;48.796;2.396;2023-02-28T06:12:25;102614.44;;;2.76;48.78
62779;BME280;48821;48.796;2.396;2023-02-28T06:13:36;102604.06;;;2.76;48.44
62779;BME280;48821;48.796;2.396;2023-02-28T06:14:48;102604.88;;;2.75;48.22
62779;BME280;48821;48.796;2.396;2023-02-28T06:16:01;102615.22;;;2.74;48.78
62779;BME280;48821;48.796;2.396;2023-02-28T06:17:12;102618.66;;;2.73;48.59
62779;BME280;48821;48.796;2.396;2023-02-28T06:18:24;102621.25;;;2.73;49.23
62779;BME280;48821;48.796;2.396;2023-02-28T06:19:39;102615.22;;;2.74;48.78
62779;BME280;48821;48.796;2.396;2023-02-28T06:20:53;102615.22;;;2.74;49.03
62779;BME280;48821;48.796;2.396;2023-02-28T06:22:05;102623.84;;;2.73;48.63
62779;BME280;48821;48.796;2.396;2023-02-28T06:23:17;102620.31;;;2.70;49.36
62779;BME280;48821;48.796;2.396;2023-02-28T06:24:29;102609.84;;;2.67;48.30
62779;BME280;48821;48.796;2.396;2023-02-28T06:25:45;102615.00;;;2.66;48.88
62779;BME280;48821;48.796;2.396;2023-02-28T06:26:56;102616.69;;;2.65;49.09
62779;BME280;48821;48.796;2.396;2023-02-28T06:28:09;102618.38;;;2.63;49.56
62779;BME280;48821;48.796;2.396;2023-02-28T06:29:21;102616.53;;;2.59;49.49
62779;BME280;48821;48.796;2.396;2023-02-28T06:30:32;102622.53;;;2.58;49.31
62779;BME280;48821;48.796;2.396;2023-02-28T06:31:45;102615.53;;;2.55;49.65
62779;BME280;48821;48.796;2.396;2023-02-28T06:32:57;102615.44;;;2.52;49.98
62779;BME280;48821;48.796;2.396;2023-02-28T06:34:10;102620.59;;;2.51;50.11
62779;BME280;48821;48.796;2.396;2023-02-28T06:35:22;102623.97;;;2.48;50.21
62779;BME280;48821;48.796;2.396;2023-02-28T06:36:34;102623.84;;;2.45;50.14
62779;BME280;48821;48.796;2.396;2023-02-28T06:37:46;102627.31;;;2.44;49.86
62779;BME280;48821;48.796;2.396;2023-02-28T06:38:58;102623.72;;;2.40;49.67
62779;BME280;48821;48.796;2.396;2023-02-28T06:40:10;102619.38;;;2.39;50.40
62779;BME280;48821;48.796;2.396;2023-02-28T06:41:26;102622.78;;;2.38;51.05
62779;BME280;48821;48.796;2.396;2023-02-28T06:42:38;102618.38;;;2.35;50.65
62779;BME280;48821;48.796;2.396;2023-02-28T06:43:50;102622.69;;;2.35;50.42
62779;BME280;48821;48.796;2.396;2023-02-28T06:45:01;102620.06;;;2.33;50.57
62779;BME280;48821;48.796;2.396;2023-02-28T06:46:14;102622.59;;;2.32;50.87
62779;BME280;48821;48.796;2.396;2023-02-28T06:47:24;102626.84;;;2.30;50.73
62779;BME280;48821;48.796;2.396;2023-02-28T06:48:36;102625.97;;;2.29;51.26
62779;BME280;48821;48.796;2.396;2023-02-28T06:49:48;102620.72;;;2.28;51.14
62779;BME280;48821;48.796;2.396;2023-02-28T06:51:11;102619.91;;;2.29;50.80
62779;BME280;48821;48.796;2.396;2023-02-28T06:52:24;102623.38;;;2.29;50.54
62779;BME280;48821;48.796;2.396;2023-02-28T06:53:36;102624.25;;;2.30;50.93
62779;BME280;48821;48.796;2.396;2023-02-28T06:54:48;102619.94;;;2.30;50.54
62779;BME280;48821;48.796;2.396;2023-02-28T06:56:12;102618.22;;;2.31;51.15
62779;BME280;48821;48.796;2.396;2023-02-28T06:57:23;102620.84;;;2.31;50.72
62779;BME280;48821;48.796;2.396;2023-02-28T06:58:36;102628.63;;;2.31;50.60
62779;BME280;48821;48.796;2.396;2023-02-28T06:59:48;102627.81;;;2.32;50.68
62779;BME280;48821;48.796;2.396;2023-02-28T07:00:59;102626.91;;;2.31;50.88
62779;BME280;48821;48.796;2.396;2023-02-28T07:02:12;102627.81;;;2.32;51.14
62779;BME280;48821;48.796;2.396;2023-02-28T07:03:22;102629.50;;;2.31;51.46
62779;BME280;48821;48.796;2.396;2023-02-28T07:04:34;102635.50;;;2.30;51.70
62779;BME280;48821;48.796;2.396;2023-02-28T07:05:46;102642.41;;;2.30;51.13
62779;BME280;48821;48.796;2.396;2023-02-28T07:06:58;102632.88;;;2.29;51.51
62779;BME280;48821;48.796;2.396;2023-02-28T07:08:11;102636.28;;;2.28;51.23
62779;BME280;48821;48.796;2.396;2023-02-28T07:09:23;102638.97;;;2.29;50.70
62779;BME280;48821;48.796;2.396;2023-02-28T07:10:37;102636.28;;;2.28;51.73